sensor_id;sensor_type;location;lat;lon;timestamp;pressure;altitude;pressure_sealevel;temperature;humidity
74915;BME280;63475;45.140;-75.616;2024-03-02T00:00:10;101756.59;;;2.92;50.58
74915;BME280;63475;45.140;-75.616;2024-03-02T00:02:16;101765.41;;;2.91;50.65
74915;BME280;63475;45.140;-75.616;2024-03-02T00:04:18;101756.72;;;2.86;50.92
74915;BME280;63475;45.140;-75.616;2024-03-02T00:06:21;101761.19;;;2.83;50.44
74915;BME280;63475;45.140;-75.616;2024-03-02T00:08:25;101763.84;;;2.81;50.68
74915;BME280;63475;45.140;-75.616;2024-03-02T00:10:38;101754.31;;;2.76;50.43
74915;BME280;63475;45.140;-75.616;2024-03-02T00:12:47;101765.75;;;2.75;50.12
74915;BME280;63475;45.140;-75.616;2024-03-02T00:14:50;101764.06;;;2.71;50.90
74915;BME280;63475;45.140;-75.616;2024-03-02T00:16:55;101764.97;;;2.70;51.26
74915;BME280;63475;45.140;-75.616;2024-03-02T00:19:05;101760.66;;;2.66;50.88
74915;BME280;63475;45.140;-75.616;2024-03-02T00:21:09;101754.59;;;2.60;50.59
74915;BME280;63475;45.140;-75.616;2024-03-02T00:23:15;101762.47;;;2.62;50.64
74915;BME280;63475;45.140;-75.616;2024-03-02T00:25:18;101747.69;;;2.56;50.71
74915;BME280;63475;45.140;-75.616;2024-03-02T00:27:21;101746.81;;;2.56;50.52
74915;BME280;63475;45.140;-75.616;2024-03-02T00:29:23;101741.66;;;2.50;50.35
74915;BME280;63475;45.140;-75.616;2024-03-02T00:31:26;101732.09;;;2.44;50.81
74915;BME280;63475;45.140;-75.616;2024-03-02T00:33:49;101740.84;;;2.46;50.89
74915;BME280;63475;45.140;-75.616;2024-03-02T00:35:52;101728.69;;;2.39;50.55
74915;BME280;63475;45.140;-75.616;2024-03-02T00:37:55;101729.59;;;2.37;50.77
74915;BME280;63475;45.140;-75.616;2024-03-02T00:39:57;101725.25;;;2.34;50.59
74915;BME280;63475;45.140;-75.616;2024-03-02T00:42:00;101726.25;;;2.30;51.09
74915;BME280;63475;45.140;-75.616;2024-03-02T00:44:06;101723.63;;;2.30;50.88
74915;BME280;63475;45.140;-75.616;2024-03-02T00:46:16;101717.53;;;2.26;51.24
74915;BME280;63475;45.140;-75.616;2024-03-02T00:48:19;101723.72;;;2.24;51.36
74915;BME280;63475;45.140;-75.616;2024-03-02T00:50:22;101719.38;;;2.21;51.50
74915;BME280;63475;45.140;-75.616;2024-03-02T00:52:31;101722.06;;;2.18;51.17
74915;BME280;63475;45.140;-75.616;2024-03-02T00:54:35;101720.34;;;2.16;51.25
74915;BME280;63475;45.140;-75.616;2024-03-02T00:56:37;101715.22;;;2.10;51.91
74915;BME280;63475;45.140;-75.616;2024-03-02T00:58:40;101710.91;;;2.06;52.83
74915;BME280;63475;45.140;-75.616;2024-03-02T01:00:43;101709.19;;;2.03;53.48
74915;BME280;63475;45.140;-75.616;2024-03-02T01:02:45;101701.31;;;2.03;53.31
74915;BME280;63475;45.140;-75.616;2024-03-02T01:04:48;101707.44;;;2.04;52.88
74915;BME280;63475;45.140;-75.616;2024-03-02T01:06:51;101694.47;;;1.91;52.77
74915;BME280;63475;45.140;-75.616;2024-03-02T01:08:54;101700.59;;;1.93;53.17
74915;BME280;63475;45.140;-75.616;2024-03-02T01:10:56;101704.94;;;1.94;53.18
74915;BME280;63475;45.140;-75.616;2024-03-02T01:12:59;101698.00;;;1.90;53.12
74915;BME280;63475;45.140;-75.616;2024-03-02T01:15:01;101702.38;;;1.91;53.12
74915;BME280;63475;45.140;-75.616;2024-03-02T01:17:06;101694.59;;;1.87;53.50
74915;BME280;63475;45.140;-75.616;2024-03-02T01:19:08;101683.28;;;1.82;53.79
74915;BME280;63475;45.140;-75.616;2024-03-02T01:21:12;101693.81;;;1.80;53.09
74915;BME280;63475;45.140;-75.616;2024-03-02T01:23:14;101685.06;;;1.80;53.38
74915;BME280;63475;45.140;-75.616;2024-03-02T01:25:17;101673.75;;;1.73;52.99
74915;BME280;63475;45.140;-75.616;2024-03-02T01:27:19;101676.41;;;1.73;52.19
74915;BME280;63475;45.140;-75.616;2024-03-02T01:29:22;101686.94;;;1.72;53.83
74915;BME280;63475;45.140;-75.616;2024-03-02T01:31:24;101677.34;;;1.69;52.93
74915;BME280;63475;45.140;-75.616;2024-03-02T01:33:27;101660.69;;;1.69;53.26
74915;BME280;63475;45.140;-75.616;2024-03-02T01:35:29;101658.19;;;1.63;53.31
74915;BME280;63475;45.140;-75.616;2024-03-02T01:37:32;101663.47;;;1.61;53.10
74915;BME280;63475;45.140;-75.616;2024-03-02T01:39:34;101652.09;;;1.61;52.94
74915;BME280;63475;45.140;-75.616;2024-03-02T01:41:37;101651.25;;;1.58;53.52
74915;BME280;63475;45.140;-75.616;2024-03-02T01:43:39;101653.97;;;1.52;52.31
74915;BME280;63475;45.140;-75.616;2024-03-02T01:45:43;101653.94;;;1.54;52.60
74915;BME280;63475;45.140;-75.616;2024-03-02T01:47:45;101650.50;;;1.50;52.06
74915;BME280;63475;45.140;-75.616;2024-03-02T01:49:48;101642.66;;;1.46;52.32
74915;BME280;63475;45.140;-75.616;2024-03-02T01:51:51;101652.31;;;1.45;52.60
74915;BME280;63475;45.140;-75.616;2024-03-02T01:53:54;101655.84;;;1.44;52.08
74915;BME280;63475;45.140;-75.616;2024-03-02T01:55:57;101659.41;;;1.42;52.68
74915;BME280;63475;45.140;-75.616;2024-03-02T01:57:59;101651.56;;;1.39;53.09
74915;BME280;63475;45.140;-75.616;2024-03-02T02:00:02;101645.44;;;1.38;53.27
74915;BME280;63475;45.140;-75.616;2024-03-02T02:02:05;101650.75;;;1.35;53.25
74915;BME280;63475;45.140;-75.616;2024-03-02T02:04:08;101649.03;;;1.33;53.75
74915;BME280;63475;45.140;-75.616;2024-03-02T02:06:11;101656.06;;;1.31;53.28
74915;BME280;63475;45.140;-75.616;2024-03-02T02:08:13;101659.59;;;1.30;53.95
74915;BME280;63475;45.140;-75.616;2024-03-02T02:10:16;101651.78;;;1.25;53.22
74915;BME280;63475;45.140;-75.616;2024-03-02T02:12:19;101664.00;;;1.28;53.64
74915;BME280;63475;45.140;-75.616;2024-03-02T02:14:22;101655.25;;;1.27;53.70
74915;BME280;63475;45.140;-75.616;2024-03-02T02:16:24;101651.88;;;1.20;53.92
74915;BME280;63475;45.140;-75.616;2024-03-02T02:18:27;101652.78;;;1.19;54.04
74915;BME280;63475;45.140;-75.616;2024-03-02T02:20:30;101655.47;;;1.13;54.68
74915;BME280;63475;45.140;-75.616;2024-03-02T02:22:33;101664.16;;;1.18;54.21
74915;BME280;63475;45.140;-75.616;2024-03-02T02:24:40;101656.31;;;1.17;54.60
74915;BME280;63475;45.140;-75.616;2024-03-02T02:26:43;101646.75;;;1.11;53.73
74915;BME280;63475;45.140;-75.616;2024-03-02T02:28:46;101649.38;;;1.11;53.96
74915;BME280;63475;45.140;-75.616;2024-03-02T02:30:51;101644.16;;;1.08;53.31
74915;BME280;63475;45.140;-75.616;2024-03-02T02:32:54;101645.97;;;1.05;53.62
74915;BME280;63475;45.140;-75.616;2024-03-02T02:34:57;101652.09;;;1.05;53.36
74915;BME280;63475;45.140;-75.616;2024-03-02T02:37:00;101642.50;;;1.01;53.45
74915;BME280;63475;45.140;-75.616;2024-03-02T02:39:04;101643.41;;;1.00;53.65
74915;BME280;63475;45.140;-75.616;2024-03-02T02:41:08;101652.16;;;0.99;54.45
74915;BME280;63475;45.140;-75.616;2024-03-02T02:43:11;101638.25;;;0.96;54.51
74915;BME280;63475;45.140;-75.616;2024-03-02T02:45:14;101643.41;;;0.99;54.36
74915;BME280;63475;45.140;-75.616;2024-03-02T02:47:17;101632.16;;;0.94;54.64
74915;BME280;63475;45.140;-75.616;2024-03-02T02:49:19;101643.50;;;0.94;55.39
74915;BME280;63475;45.140;-75.616;2024-03-02T02:51:22;101621.69;;;0.89;55.33
74915;BME280;63475;45.140;-75.616;2024-03-02T02:53:26;101616.53;;;0.83;55.06
74915;BME280;63475;45.140;-75.616;2024-03-02T02:55:28;101617.34;;;0.86;55.30
74915;BME280;63475;45.140;-75.616;2024-03-02T02:57:34;101624.31;;;0.89;55.41
74915;BME280;63475;45.140;-75.616;2024-03-02T02:59:38;101611.31;;;0.80;55.52
74915;BME280;63475;45.140;-75.616;2024-03-02T03:01:41;101623.53;;;0.82;55.68
74915;BME280;63475;45.140;-75.616;2024-03-02T03:03:44;101617.47;;;0.79;55.48
74915;BME280;63475;45.140;-75.616;2024-03-02T03:05:48;101620.09;;;0.79;55.47
74915;BME280;63475;45.140;-75.616;2024-03-02T03:07:51;101607.03;;;0.76;55.52
74915;BME280;63475;45.140;-75.616;2024-03-02T03:09:54;101614.97;;;0.71;55.45
74915;BME280;63475;45.140;-75.616;2024-03-02T03:11:56;101616.69;;;0.72;55.44
74915;BME280;63475;45.140;-75.616;2024-03-02T03:13:59;101601.00;;;0.68;55.72
74915;BME280;63475;45.140;-75.616;2024-03-02T03:16:03;101603.63;;;0.68;56.40
74915;BME280;63475;45.140;-75.616;2024-03-02T03:18:06;101601.88;;;0.67;56.13
74915;BME280;63475;45.140;-75.616;2024-03-02T03:20:12;101608.91;;;0.65;56.10
74915;BME280;63475;45.140;-75.616;2024-03-02T03:22:15;101593.28;;;0.55;56.41
74915;BME280;63475;45.140;-75.616;2024-03-02T03:24:18;101597.72;;;0.52;56.14
74915;BME280;63475;45.140;-75.616;2024-03-02T03:26:20;101600.31;;;0.53;55.72
74915;BME280;63475;45.140;-75.616;2024-03-02T03:28:23;101605.56;;;0.53;56.27
74915;BME280;63475;45.140;-75.616;2024-03-02T03:30:25;101598.59;;;0.52;56.71
74915;BME280;63475;45.140;-75.616;2024-03-02T03:32:28;101610.81;;;0.53;56.28
74915;BME280;63475;45.140;-75.616;2024-03-02T03:34:34;101608.22;;;0.52;56.63
74915;BME280;63475;45.140;-75.616;2024-03-02T03:36:37;101609.97;;;0.53;56.90
74915;BME280;63475;45.140;-75.616;2024-03-02T03:38:39;101609.19;;;0.46;56.83
74915;BME280;63475;45.140;-75.616;2024-03-02T03:40:42;101603.88;;;0.49;56.95
74915;BME280;63475;45.140;-75.616;2024-03-02T03:42:44;101604.78;;;0.47;57.09
74915;BME280;63475;45.140;-75.616;2024-03-02T03:44:47;101606.53;;;0.48;56.74
74915;BME280;63475;45.140;-75.616;2024-03-02T03:46:49;101602.19;;;0.45;57.21
74915;BME280;63475;45.140;-75.616;2024-03-02T03:48:52;101602.19;;;0.45;57.39
74915;BME280;63475;45.140;-75.616;2024-03-02T03:50:54;101612.66;;;0.48;57.59
74915;BME280;63475;45.140;-75.616;2024-03-02T03:52:57;101600.41;;;0.47;57.63
74915;BME280;63475;45.140;-75.616;2024-03-02T03:55:00;101595.16;;;0.47;57.57
74915;BME280;63475;45.140;-75.616;2024-03-02T03:57:03;101590.81;;;0.46;56.91
74915;BME280;63475;45.140;-75.616;2024-03-02T03:59:05;101592.53;;;0.49;57.04
74915;BME280;63475;45.140;-75.616;2024-03-02T04:01:08;101590.81;;;0.45;57.52
74915;BME280;63475;45.140;-75.616;2024-03-02T04:03:11;101598.63;;;0.49;57.65
74915;BME280;63475;45.140;-75.616;2024-03-02T04:05:14;101586.44;;;0.45;56.86
74915;BME280;63475;45.140;-75.616;2024-03-02T04:07:16;101585.53;;;0.48;57.44
74915;BME280;63475;45.140;-75.616;2024-03-02T04:09:20;101592.53;;;0.49;56.32
74915;BME280;63475;45.140;-75.616;2024-03-02T04:11:22;101594.28;;;0.47;57.66
74915;BME280;63475;45.140;-75.616;2024-03-02T04:13:25;101589.03;;;0.48;56.63
74915;BME280;63475;45.140;-75.616;2024-03-02T04:15:27;101579.38;;;0.50;57.83
74915;BME280;63475;45.140;-75.616;2024-03-02T04:17:31;101580.28;;;0.48;57.57
74915;BME280;63475;45.140;-75.616;2024-03-02T04:19:34;101582.88;;;0.49;56.55
74915;BME280;63475;45.140;-75.616;2024-03-02T04:21:37;101565.47;;;0.44;57.25
74915;BME280;63475;45.140;-75.616;2024-03-02T04:23:39;101570.63;;;0.50;57.56
74915;BME280;63475;45.140;-75.616;2024-03-02T04:25:42;101568.97;;;0.44;56.66
74915;BME280;63475;45.140;-75.616;2024-03-02T04:27:44;101564.59;;;0.43;57.13
74915;BME280;63475;45.140;-75.616;2024-03-02T04:29:47;101564.53;;;0.48;57.01
74915;BME280;63475;45.140;-75.616;2024-03-02T04:31:49;101552.31;;;0.45;56.80
74915;BME280;63475;45.140;-75.616;2024-03-02T04:33:52;101568.78;;;0.56;57.43
74915;BME280;63475;45.140;-75.616;2024-03-02T04:35:55;101571.34;;;0.60;56.26
74915;BME280;63475;45.140;-75.616;2024-03-02T04:37:57;101563.44;;;0.63;57.42
74915;BME280;63475;45.140;-75.616;2024-03-02T04:40:00;101562.59;;;0.61;56.81
74915;BME280;63475;45.140;-75.616;2024-03-02T04:42:02;101566.03;;;0.64;56.70
74915;BME280;63475;45.140;-75.616;2024-03-02T04:44:05;101557.19;;;0.71;56.94
74915;BME280;63475;45.140;-75.616;2024-03-02T04:46:10;101554.53;;;0.73;58.13
74915;BME280;63475;45.140;-75.616;2024-03-02T04:48:13;101557.16;;;0.74;58.48
74915;BME280;63475;45.140;-75.616;2024-03-02T04:50:16;101549.19;;;0.77;57.81
74915;BME280;63475;45.140;-75.616;2024-03-02T04:52:19;101549.16;;;0.80;57.85
74915;BME280;63475;45.140;-75.616;2024-03-02T04:54:21;101548.28;;;0.81;57.50
74915;BME280;63475;45.140;-75.616;2024-03-02T04:56:24;101554.38;;;0.82;57.78
74915;BME280;63475;45.140;-75.616;2024-03-02T04:58:42;101548.25;;;0.83;57.11
74915;BME280;63475;45.140;-75.616;2024-03-02T05:00:44;101537.78;;;0.80;57.37
74915;BME280;63475;45.140;-75.616;2024-03-02T05:02:49;101546.50;;;0.82;57.13
74915;BME280;63475;45.140;-75.616;2024-03-02T05:04:52;101531.75;;;0.75;57.25
74915;BME280;63475;45.140;-75.616;2024-03-02T05:06:54;101545.63;;;0.83;57.02
74915;BME280;63475;45.140;-75.616;2024-03-02T05:08:58;101531.69;;;0.78;57.07
74915;BME280;63475;45.140;-75.616;2024-03-02T05:11:01;101536.91;;;0.81;57.16
74915;BME280;63475;45.140;-75.616;2024-03-02T05:13:23;101530.78;;;0.80;56.88
74915;BME280;63475;45.140;-75.616;2024-03-02T05:15:26;101538.69;;;0.79;57.36
74915;BME280;63475;45.140;-75.616;2024-03-02T05:17:29;101531.63;;;0.81;56.76
74915;BME280;63475;45.140;-75.616;2024-03-02T05:19:31;101524.75;;;0.75;56.91
74915;BME280;63475;45.140;-75.616;2024-03-02T05:21:34;101537.75;;;0.83;57.76
74915;BME280;63475;45.140;-75.616;2024-03-02T05:23:37;101528.25;;;0.76;57.13
74915;BME280;63475;45.140;-75.616;2024-03-02T05:25:39;101531.63;;;0.81;57.20
74915;BME280;63475;45.140;-75.616;2024-03-02T05:27:42;101531.63;;;0.81;57.70
74915;BME280;63475;45.140;-75.616;2024-03-02T05:29:44;101534.22;;;0.84;57.89
74915;BME280;63475;45.140;-75.616;2024-03-02T05:31:48;101538.59;;;0.85;57.96
74915;BME280;63475;45.140;-75.616;2024-03-02T05:33:50;101530.72;;;0.83;58.29
74915;BME280;63475;45.140;-75.616;2024-03-02T05:35:59;101542.94;;;0.87;57.47
74915;BME280;63475;45.140;-75.616;2024-03-02T05:38:01;101531.53;;;0.88;58.16
74915;BME280;63475;45.140;-75.616;2024-03-02T05:40:04;101515.84;;;0.84;57.92
74915;BME280;63475;45.140;-75.616;2024-03-02T05:42:08;101521.91;;;0.87;58.72
74915;BME280;63475;45.140;-75.616;2024-03-02T05:44:10;101529.84;;;0.84;58.46
74915;BME280;63475;45.140;-75.616;2024-03-02T05:46:14;101512.31;;;0.85;57.59
74915;BME280;63475;45.140;-75.616;2024-03-02T05:48:17;101521.03;;;0.87;57.59
74915;BME280;63475;45.140;-75.616;2024-03-02T05:50:19;101528.00;;;0.91;57.55
74915;BME280;63475;45.140;-75.616;2024-03-02T05:52:22;101522.72;;;0.91;57.56
74915;BME280;63475;45.140;-75.616;2024-03-02T05:54:24;101517.53;;;0.88;57.30
74915;BME280;63475;45.140;-75.616;2024-03-02T05:56:27;101520.13;;;0.89;57.41
74915;BME280;63475;45.140;-75.616;2024-03-02T05:58:29;101525.38;;;0.89;57.92
74915;BME280;63475;45.140;-75.616;2024-03-02T06:00:48;101514.03;;;0.87;57.58
74915;BME280;63475;45.140;-75.616;2024-03-02T06:02:51;101522.78;;;0.88;57.42
74915;BME280;63475;45.140;-75.616;2024-03-02T06:04:55;101522.78;;;0.88;57.98
74915;BME280;63475;45.140;-75.616;2024-03-02T06:06:58;101525.41;;;0.88;57.31
74915;BME280;63475;45.140;-75.616;2024-03-02T06:09:01;101524.63;;;0.81;57.80
74915;BME280;63475;45.140;-75.616;2024-03-02T06:11:10;101527.22;;;0.83;57.97
74915;BME280;63475;45.140;-75.616;2024-03-02T06:13:14;101530.72;;;0.85;57.81
74915;BME280;63475;45.140;-75.616;2024-03-02T06:15:17;101520.25;;;0.82;57.95
74915;BME280;63475;45.140;-75.616;2024-03-02T06:17:19;101515.91;;;0.79;57.91
74915;BME280;63475;45.140;-75.616;2024-03-02T06:19:22;101518.50;;;0.82;57.94
74915;BME280;63475;45.140;-75.616;2024-03-02T06:21:25;101521.19;;;0.76;58.29
74915;BME280;63475;45.140;-75.616;2024-03-02T06:23:28;101521.19;;;0.78;58.13
74915;BME280;63475;45.140;-75.616;2024-03-02T06:25:30;101518.56;;;0.76;57.90
74915;BME280;63475;45.140;-75.616;2024-03-02T06:27:33;101523.84;;;0.76;58.12
74915;BME280;63475;45.140;-75.616;2024-03-02T06:29:36;101524.78;;;0.74;57.98
74915;BME280;63475;45.140;-75.616;2024-03-02T06:31:38;101523.03;;;0.74;58.53
74915;BME280;63475;45.140;-75.616;2024-03-02T06:33:41;101518.66;;;0.73;58.27
74915;BME280;63475;45.140;-75.616;2024-03-02T06:35:44;101518.66;;;0.73;58.42
74915;BME280;63475;45.140;-75.616;2024-03-02T06:37:46;101516.97;;;0.69;58.76
74915;BME280;63475;45.140;-75.616;2024-03-02T06:39:49;101520.44;;;0.71;58.18
74915;BME280;63475;45.140;-75.616;2024-03-02T06:41:52;101526.59;;;0.69;58.61
74915;BME280;63475;45.140;-75.616;2024-03-02T06:43:54;101527.50;;;0.68;58.59
74915;BME280;63475;45.140;-75.616;2024-03-02T06:46:02;101525.75;;;0.67;58.61
74915;BME280;63475;45.140;-75.616;2024-03-02T06:48:05;101517.97;;;0.61;58.43
74915;BME280;63475;45.140;-75.616;2024-03-02T06:50:08;101523.22;;;0.61;58.27
74915;BME280;63475;45.140;-75.616;2024-03-02T06:52:11;101529.34;;;0.60;58.72
74915;BME280;63475;45.140;-75.616;2024-03-02T06:54:14;101524.97;;;0.60;58.88
74915;BME280;63475;45.140;-75.616;2024-03-02T06:56:16;101527.59;;;0.60;58.96
74915;BME280;63475;45.140;-75.616;2024-03-02T06:58:19;101511.16;;;0.49;58.64
74915;BME280;63475;45.140;-75.616;2024-03-02T07:00:22;101519.00;;;0.52;58.70
74915;BME280;63475;45.140;-75.616;2024-03-02T07:02:25;101523.38;;;0.50;59.01
74915;BME280;63475;45.140;-75.616;2024-03-02T07:04:30;101515.59;;;0.45;58.91
74915;BME280;63475;45.140;-75.616;2024-03-02T07:06:32;101517.34;;;0.45;58.72
74915;BME280;63475;45.140;-75.616;2024-03-02T07:08:35;101514.78;;;0.40;59.23
74915;BME280;63475;45.140;-75.616;2024-03-02T07:10:38;101516.50;;;0.41;59.06
74915;BME280;63475;45.140;-75.616;2024-03-02T07:12:41;101514.81;;;0.37;59.15
74915;BME280;63475;45.140;-75.616;2024-03-02T07:14:43;101511.38;;;0.32;59.50
74915;BME280;63475;45.140;-75.616;2024-03-02T07:17:04;101517.50;;;0.31;59.36
74915;BME280;63475;45.140;-75.616;2024-03-02T07:19:07;101507.13;;;0.25;59.50
74915;BME280;63475;45.140;-75.616;2024-03-02T07:21:10;101508.94;;;0.20;59.70
74915;BME280;63475;45.140;-75.616;2024-03-02T07:23:12;101512.44;;;0.19;59.71
74915;BME280;63475;45.140;-75.616;2024-03-02T07:25:15;101513.38;;;0.15;59.71
74915;BME280;63475;45.140;-75.616;2024-03-02T07:27:20;101505.63;;;0.07;59.75
74915;BME280;63475;45.140;-75.616;2024-03-02T07:29:23;101508.19;;;0.09;59.67
74915;BME280;63475;45.140;-75.616;2024-03-02T07:31:25;101508.31;;;0.03;60.11
74915;BME280;63475;45.140;-75.616;2024-03-02T07:33:28;101512.66;;;0.04;59.91
74915;BME280;63475;45.140;-75.616;2024-03-02T07:35:30;101502.28;;;-0.04;60.37
74915;BME280;63475;45.140;-75.616;2024-03-02T07:37:33;101505.75;;;-0.03;59.98
74915;BME280;63475;45.140;-75.616;2024-03-02T07:39:36;101511.03;;;-0.06;59.98
74915;BME280;63475;45.140;-75.616;2024-03-02T07:41:41;101507.63;;;-0.13;60.50
74915;BME280;63475;45.140;-75.616;2024-03-02T07:43:44;101506.84;;;-0.20;60.60
74915;BME280;63475;45.140;-75.616;2024-03-02T07:45:47;101517.31;;;-0.17;61.17
74915;BME280;63475;45.140;-75.616;2024-03-02T07:47:50;101523.47;;;-0.21;60.58
74915;BME280;63475;45.140;-75.616;2024-03-02T07:49:52;101522.59;;;-0.21;61.54
74915;BME280;63475;45.140;-75.616;2024-03-02T07:51:56;101518.28;;;-0.25;61.20
74915;BME280;63475;45.140;-75.616;2024-03-02T07:53:58;101516.53;;;-0.28;61.45
74915;BME280;63475;45.140;-75.616;2024-03-02T07:56:01;101513.97;;;-0.31;61.79
74915;BME280;63475;45.140;-75.616;2024-03-02T07:58:04;101518.31;;;-0.31;61.52
74915;BME280;63475;45.140;-75.616;2024-03-02T08:00:07;101513.97;;;-0.32;61.75
74915;BME280;63475;45.140;-75.616;2024-03-02T08:02:11;101509.72;;;-0.39;61.78
74915;BME280;63475;45.140;-75.616;2024-03-02T08:04:14;101518.44;;;-0.37;61.79
74915;BME280;63475;45.140;-75.616;2024-03-02T08:06:18;101514.94;;;-0.38;62.07
74915;BME280;63475;45.140;-75.616;2024-03-02T08:08:23;101513.22;;;-0.40;62.19
74915;BME280;63475;45.140;-75.616;2024-03-02T08:10:26;101520.22;;;-0.42;62.26
74915;BME280;63475;45.140;-75.616;2024-03-02T08:12:28;101522.88;;;-0.47;61.97
74915;BME280;63475;45.140;-75.616;2024-03-02T08:14:31;101511.53;;;-0.48;61.75
74915;BME280;63475;45.140;-75.616;2024-03-02T08:16:33;101518.53;;;-0.50;62.32
74915;BME280;63475;45.140;-75.616;2024-03-02T08:18:36;101519.41;;;-0.49;61.55
74915;BME280;63475;45.140;-75.616;2024-03-02T08:20:39;101516.81;;;-0.51;62.24
74915;BME280;63475;45.140;-75.616;2024-03-02T08:22:42;101525.50;;;-0.47;62.46
74915;BME280;63475;45.140;-75.616;2024-03-02T08:24:45;101525.53;;;-0.49;61.83
74915;BME280;63475;45.140;-75.616;2024-03-02T08:26:48;101519.44;;;-0.51;61.67
74915;BME280;63475;45.140;-75.616;2024-03-02T08:28:50;101523.81;;;-0.51;62.86
74915;BME280;63475;45.140;-75.616;2024-03-02T08:30:53;101521.22;;;-0.56;61.68
74915;BME280;63475;45.140;-75.616;2024-03-02T08:32:55;101524.66;;;-0.51;62.47
74915;BME280;63475;45.140;-75.616;2024-03-02T08:34:58;101527.31;;;-0.54;62.22
74915;BME280;63475;45.140;-75.616;2024-03-02T08:37:02;101525.56;;;-0.53;62.12
74915;BME280;63475;45.140;-75.616;2024-03-02T08:39:04;101512.53;;;-0.59;61.60
74915;BME280;63475;45.140;-75.616;2024-03-02T08:41:09;101514.25;;;-0.57;61.65
74915;BME280;63475;45.140;-75.616;2024-03-02T08:43:12;101509.00;;;-0.55;62.16
74915;BME280;63475;45.140;-75.616;2024-03-02T08:45:15;101517.72;;;-0.55;62.24
74915;BME280;63475;45.140;-75.616;2024-03-02T08:47:17;101518.59;;;-0.56;61.79
74915;BME280;63475;45.140;-75.616;2024-03-02T08:49:20;101526.44;;;-0.54;61.89
74915;BME280;63475;45.140;-75.616;2024-03-02T08:51:23;101514.22;;;-0.55;62.39
74915;BME280;63475;45.140;-75.616;2024-03-02T08:53:25;101509.06;;;-0.60;62.50
74915;BME280;63475;45.140;-75.616;2024-03-02T08:55:28;101506.44;;;-0.60;62.10
74915;BME280;63475;45.140;-75.616;2024-03-02T08:57:31;101516.06;;;-0.60;62.92
74915;BME280;63475;45.140;-75.616;2024-03-02T08:59:34;101510.00;;;-0.65;62.79
74915;BME280;63475;45.140;-75.616;2024-03-02T09:01:36;101510.00;;;-0.65;62.47
74915;BME280;63475;45.140;-75.616;2024-03-02T09:03:43;101513.50;;;-0.66;62.43
74915;BME280;63475;45.140;-75.616;2024-03-02T09:05:49;101517.84;;;-0.65;62.42
74915;BME280;63475;45.140;-75.616;2024-03-02T09:07:52;101510.88;;;-0.66;62.97
74915;BME280;63475;45.140;-75.616;2024-03-02T09:09:56;101510.03;;;-0.71;62.48
74915;BME280;63475;45.140;-75.616;2024-03-02T09:11:59;101507.44;;;-0.71;62.62
74915;BME280;63475;45.140;-75.616;2024-03-02T09:14:02;101515.28;;;-0.70;62.92
74915;BME280;63475;45.140;-75.616;2024-03-02T09:16:05;101516.13;;;-0.69;62.72
74915;BME280;63475;45.140;-75.616;2024-03-02T09:18:07;101516.13;;;-0.69;63.46
74915;BME280;63475;45.140;-75.616;2024-03-02T09:20:10;101515.28;;;-0.70;63.70
74915;BME280;63475;45.140;-75.616;2024-03-02T09:22:13;101500.50;;;-0.78;63.26
74915;BME280;63475;45.140;-75.616;2024-03-02T09:24:16;101523.13;;;-0.71;62.97
74915;BME280;63475;45.140;-75.616;2024-03-02T09:26:19;101517.91;;;-0.71;63.59
74915;BME280;63475;45.140;-75.616;2024-03-02T09:28:22;101523.13;;;-0.71;63.68
74915;BME280;63475;45.140;-75.616;2024-03-02T09:30:25;101536.25;;;-0.71;64.14
74915;BME280;63475;45.140;-75.616;2024-03-02T09:32:27;101520.53;;;-0.73;63.83
74915;BME280;63475;45.140;-75.616;2024-03-02T09:34:30;101533.63;;;-0.71;63.64
74915;BME280;63475;45.140;-75.616;2024-03-02T09:36:33;101523.13;;;-0.71;63.42
74915;BME280;63475;45.140;-75.616;2024-03-02T09:38:35;101514.47;;;-0.79;63.39
74915;BME280;63475;45.140;-75.616;2024-03-02T09:40:41;101537.09;;;-0.69;64.07
74915;BME280;63475;45.140;-75.616;2024-03-02T09:42:45;101524.88;;;-0.70;63.63
74915;BME280;63475;45.140;-75.616;2024-03-02T09:44:48;101541.44;;;-0.68;63.17
74915;BME280;63475;45.140;-75.616;2024-03-02T09:46:51;101535.31;;;-0.66;63.75
74915;BME280;63475;45.140;-75.616;2024-03-02T09:48:54;101531.84;;;-0.66;64.33
74915;BME280;63475;45.140;-75.616;2024-03-02T09:50:57;101521.34;;;-0.66;64.26
74915;BME280;63475;45.140;-75.616;2024-03-02T09:52:59;101527.47;;;-0.66;63.61
74915;BME280;63475;45.140;-75.616;2024-03-02T09:55:02;101525.72;;;-0.68;63.93
74915;BME280;63475;45.140;-75.616;2024-03-02T09:57:05;101518.72;;;-0.65;63.54
74915;BME280;63475;45.140;-75.616;2024-03-02T09:59:08;101520.44;;;-0.64;64.08
74915;BME280;63475;45.140;-75.616;2024-03-02T10:01:10;101520.44;;;-0.61;63.97
74915;BME280;63475;45.140;-75.616;2024-03-02T10:03:13;101524.81;;;-0.61;64.11
74915;BME280;63475;45.140;-75.616;2024-03-02T10:05:26;101520.38;;;-0.59;63.84
74915;BME280;63475;45.140;-75.616;2024-03-02T10:07:31;101518.56;;;-0.53;63.89
74915;BME280;63475;45.140;-75.616;2024-03-02T10:09:35;101522.91;;;-0.50;63.86
74915;BME280;63475;45.140;-75.616;2024-03-02T10:11:38;101508.97;;;-0.54;63.55
74915;BME280;63475;45.140;-75.616;2024-03-02T10:13:41;101518.53;;;-0.48;63.67
74915;BME280;63475;45.140;-75.616;2024-03-02T10:15:43;101508.91;;;-0.46;63.99
74915;BME280;63475;45.140;-75.616;2024-03-02T10:17:46;101512.38;;;-0.44;64.00
74915;BME280;63475;45.140;-75.616;2024-03-02T10:19:48;101515.84;;;-0.42;64.15
74915;BME280;63475;45.140;-75.616;2024-03-02T10:21:54;101506.25;;;-0.44;63.67
74915;BME280;63475;45.140;-75.616;2024-03-02T10:24:07;101518.44;;;-0.40;64.12
74915;BME280;63475;45.140;-75.616;2024-03-02T10:26:18;101503.59;;;-0.40;63.52
74915;BME280;63475;45.140;-75.616;2024-03-02T10:28:21;101504.41;;;-0.36;64.22
74915;BME280;63475;45.140;-75.616;2024-03-02T10:30:24;101503.53;;;-0.37;63.25
74915;BME280;63475;45.140;-75.616;2024-03-02T10:32:26;101508.75;;;-0.34;63.17
74915;BME280;63475;45.140;-75.616;2024-03-02T10:34:29;101501.72;;;-0.32;63.63